createdAt,value
2022-08-07T00:00:26.315Z,16.53
2022-08-07T00:02:56.075Z,16.46
2022-08-07T00:05:24.133Z,16.35
2022-08-07T00:08:00.290Z,16.48
2022-08-07T00:10:31.417Z,16.37
2022-08-07T00:13:03.211Z,16.36
2022-08-07T00:15:46.826Z,16.28
2022-08-07T00:18:24.303Z,16.26
2022-08-07T00:20:54.927Z,16.20
2022-08-07T00:23:28.365Z,16.10
2022-08-07T00:26:00.125Z,16.25
2022-08-07T00:28:34.015Z,16.30
2022-08-07T00:31:05.856Z,16.28
2022-08-07T00:33:34.754Z,16.37
2022-08-07T00:36:04.112Z,16.27
2022-08-07T00:38:34.968Z,16.26
2022-08-07T00:41:05.133Z,16.12
2022-08-07T00:44:01.747Z,16.04
2022-08-07T00:46:26.257Z,15.99
2022-08-07T00:48:54.096Z,16.05
2022-08-07T00:51:22.219Z,16.04
2022-08-07T00:53:57.304Z,15.93
2022-08-07T00:56:30.406Z,15.94
2022-08-07T00:59:02.304Z,16.11
2022-08-07T01:04:10.026Z,16.07
2022-08-07T01:06:38.578Z,15.90
2022-08-07T01:09:08.467Z,15.86
2022-08-07T01:12:10.078Z,15.73
2022-08-07T01:14:37.228Z,15.58
2022-08-07T01:17:07.200Z,15.49
2022-08-07T01:19:38.390Z,15.43
2022-08-07T01:22:09.338Z,15.48
2022-08-07T01:24:50.947Z,15.33
2022-08-07T01:27:19.322Z,15.34
2022-08-07T01:29:48.078Z,15.44
2022-08-07T01:32:18.893Z,15.27
2022-08-07T01:34:47.327Z,15.10
2022-08-07T01:37:18.963Z,15.11
2022-08-07T01:39:48.830Z,15.15
2022-08-07T01:42:38.729Z,15.46
2022-08-07T01:45:09.686Z,15.31
2022-08-07T01:48:20.560Z,15.34
2022-08-07T01:50:28.933Z,15.09
2022-08-07T01:53:01.632Z,15.11
2022-08-07T01:55:40.639Z,15.09
2022-08-07T01:58:29.179Z,15.42
2022-08-07T02:01:10.012Z,15.24
2022-08-07T02:03:57.570Z,15.33
2022-08-07T02:06:31.679Z,15.21
2022-08-07T02:12:02.681Z,15.04
2022-08-07T02:14:40.403Z,14.86
2022-08-07T02:17:11.235Z,14.94
2022-08-07T02:22:31.719Z,14.69
2022-08-07T02:25:02.089Z,14.58
2022-08-07T02:27:36.353Z,14.54
2022-08-07T02:30:18.624Z,14.65
2022-08-07T02:33:01.002Z,14.46
2022-08-07T02:36:28.563Z,14.38
2022-08-07T02:38:34.186Z,14.47
2022-08-07T02:41:05.456Z,14.44
2022-08-07T02:43:39.737Z,14.74
2022-08-07T02:46:09.746Z,14.63
2022-08-07T02:48:37.963Z,14.54
2022-08-07T02:51:29.090Z,14.34
2022-08-07T02:53:59.943Z,14.44
2022-08-07T02:59:05.733Z,14.22
2022-08-07T03:01:39.892Z,14.17
2022-08-07T03:04:12.894Z,14.38
2022-08-07T03:06:44.835Z,14.24
2022-08-07T03:09:14.602Z,14.36
2022-08-07T03:12:05.758Z,14.03
2022-08-07T03:14:36.985Z,13.86
2022-08-07T03:17:06.108Z,13.71
2022-08-07T03:19:37.527Z,13.75
2022-08-07T03:22:07.117Z,13.69
2022-08-07T03:24:37.141Z,13.77
2022-08-07T03:27:09.613Z,13.64
2022-08-07T03:29:46.065Z,13.65
2022-08-07T03:32:22.714Z,13.70
2022-08-07T03:35:17.138Z,13.90
2022-08-07T03:37:46.402Z,13.80
2022-08-07T03:40:22.361Z,13.84
2022-08-07T03:42:52.817Z,13.76
2022-08-07T03:45:30.895Z,13.65
2022-08-07T03:48:00.408Z,13.58
2022-08-07T03:50:29.686Z,13.49
2022-08-07T03:52:59.156Z,13.41
2022-08-07T03:55:52.843Z,13.31
2022-08-07T03:59:05.566Z,13.30
2022-08-07T04:01:11.169Z,13.32
2022-08-07T04:03:53.133Z,13.30
2022-08-07T04:06:37.308Z,13.39
2022-08-07T04:09:08.516Z,13.52
2022-08-07T04:12:25.501Z,13.32
2022-08-07T04:14:37.249Z,13.40
2022-08-07T04:17:20.321Z,13.34
2022-08-07T04:19:52.239Z,13.30
2022-08-07T04:22:28.983Z,13.19
2022-08-07T04:25:00.849Z,13.17
2022-08-07T04:27:35.406Z,13.15
2022-08-07T04:30:11.875Z,13.36
2022-08-07T04:32:49.203Z,13.24
2022-08-07T04:35:26.984Z,13.33
2022-08-07T04:38:05.591Z,13.24
2022-08-07T04:40:34.947Z,13.25
2022-08-07T04:43:03.575Z,13.18
2022-08-07T04:48:36.744Z,13.25
2022-08-07T04:51:09.029Z,13.31
2022-08-07T04:54:01.757Z,13.30
2022-08-07T04:58:07.303Z,13.45
2022-08-07T05:00:12.242Z,13.43
2022-08-07T05:02:28.618Z,13.29
2022-08-07T05:05:11.939Z,13.36
2022-08-07T05:07:59.752Z,13.33
2022-08-07T05:10:34.366Z,13.42
2022-08-07T05:14:44.524Z,13.56
2022-08-07T05:15:59.212Z,13.68
2022-08-07T05:18:36.678Z,13.83
2022-08-07T05:21:06.761Z,13.79
2022-08-07T05:23:39.820Z,13.72
2022-08-07T05:26:18.777Z,13.82
2022-08-07T05:28:57.883Z,13.91
2022-08-07T05:31:35.337Z,14.07
2022-08-07T05:34:10.898Z,14.03
2022-08-07T05:36:41.694Z,14.05
2022-08-07T05:40:05.382Z,14.18
2022-08-07T05:42:00.245Z,14.16
2022-08-07T05:44:34.978Z,14.43
2022-08-07T05:47:17.890Z,14.52
2022-08-07T05:49:49.911Z,14.59
2022-08-07T05:52:20.046Z,14.65
2022-08-07T05:54:55.374Z,14.86
2022-08-07T06:00:00.291Z,15.15
2022-08-07T06:02:32.512Z,15.37
2022-08-07T06:05:06.537Z,15.39
2022-08-07T06:08:14.647Z,15.48
2022-08-07T06:10:25.101Z,15.85
2022-08-07T06:15:21.931Z,15.90
2022-08-07T06:18:08.052Z,16.28
2022-08-07T06:20:50.422Z,16.44
2022-08-07T06:24:36.943Z,16.54
2022-08-07T06:26:27.409Z,16.59
2022-08-07T06:28:58.970Z,16.89
2022-08-07T06:31:49.373Z,16.85
2022-08-07T06:34:14.925Z,16.94
2022-08-07T06:36:44.226Z,17.07
2022-08-07T06:40:16.245Z,17.21
2022-08-07T06:42:05.661Z,17.28
2022-08-07T06:44:39.559Z,17.41
2022-08-07T06:47:10.357Z,17.56
2022-08-07T06:49:51.707Z,17.61
2022-08-07T06:52:31.531Z,17.68
2022-08-07T06:55:31.624Z,18.02
2022-08-07T06:58:05.211Z,18.22
2022-08-07T07:00:39.794Z,18.33
2022-08-07T07:03:13.923Z,18.47
2022-08-07T07:06:02.626Z,18.08
2022-08-07T07:08:33.275Z,18.33
2022-08-07T07:11:14.060Z,18.37
2022-08-07T07:13:57.583Z,18.39
2022-08-07T07:16:31.955Z,18.78
2022-08-07T07:19:33.906Z,18.82
2022-08-07T07:22:04.621Z,19.09
2022-08-07T07:24:56.751Z,19.33
2022-08-07T07:27:35.856Z,19.46
2022-08-07T07:30:26.535Z,19.42
2022-08-07T07:35:54.223Z,19.67
2022-08-07T07:38:26.537Z,19.96
2022-08-07T07:41:02.211Z,20.03
2022-08-07T07:44:14.475Z,19.86
2022-08-07T07:46:40.020Z,20.11
2022-08-07T07:50:34.516Z,20.49
2022-08-07T07:52:02.430Z,20.89
2022-08-07T07:54:33.480Z,21.13
2022-08-07T07:57:06.933Z,21.14
2022-08-07T07:59:51.546Z,21.20
2022-08-07T08:02:34.334Z,21.36
2022-08-07T08:05:05.398Z,21.49
2022-08-07T08:07:51.445Z,22.20
2022-08-07T08:10:35.696Z,22.64
2022-08-07T08:13:10.321Z,22.50
2022-08-07T08:15:58.713Z,22.84
2022-08-07T08:18:29.245Z,23.12
2022-08-07T08:21:00.019Z,23.08
2022-08-07T08:23:48.642Z,25.09
2022-08-07T08:26:37.188Z,25.41
2022-08-07T08:29:08.424Z,24.77
2022-08-07T08:34:29.297Z,25.14
2022-08-07T08:36:58.966Z,25.72
2022-08-07T08:39:39.504Z,24.82
2022-08-07T08:42:27.891Z,25.13
2022-08-07T08:45:04.494Z,25.09
2022-08-07T08:47:52.402Z,25.01
2022-08-07T08:50:35.250Z,24.83
2022-08-07T08:53:20.488Z,26.07
2022-08-07T08:55:54.848Z,24.54
2022-08-07T08:58:35.193Z,24.74
2022-08-07T09:01:15.178Z,25.08
2022-08-07T09:03:52.696Z,25.88
2022-08-07T09:06:33.887Z,25.70
2022-08-07T09:09:23.629Z,26.00
2022-08-07T09:12:20.225Z,24.86
2022-08-07T09:16:25.688Z,26.03
2022-08-07T09:18:15.780Z,27.47
2022-08-07T09:24:29.004Z,27.54
2022-08-07T09:30:03.873Z,27.46
2022-08-07T09:32:18.725Z,26.87
2022-08-07T09:35:00.115Z,27.32
2022-08-07T09:40:27.955Z,27.33
2022-08-07T09:47:24.103Z,26.67
2022-08-07T09:48:50.205Z,27.35
2022-08-07T09:52:16.825Z,26.74
2022-08-07T09:54:42.278Z,26.44
2022-08-07T10:00:08.263Z,26.79
2022-08-07T10:03:08.310Z,27.45
2022-08-07T10:06:12.176Z,27.13
2022-08-07T10:09:34.538Z,27.58
2022-08-07T10:15:44.486Z,27.46
2022-08-07T10:24:40.632Z,27.60
2022-08-07T10:27:46.728Z,27.47
2022-08-07T10:30:19.085Z,27.13
2022-08-07T10:34:05.833Z,27.81
2022-08-07T10:36:37.643Z,27.72
2022-08-07T10:39:17.434Z,27.18
2022-08-07T10:42:09.308Z,28.15
2022-08-07T10:44:57.606Z,28.16
2022-08-07T10:50:25.925Z,28.49
2022-08-07T10:53:05.383Z,28.01
2022-08-07T10:55:45.050Z,27.60
2022-08-07T10:58:32.000Z,27.52
2022-08-07T11:01:22.327Z,27.08
2022-08-07T11:04:23.185Z,27.29
2022-08-07T11:06:56.450Z,28.76
2022-08-07T11:10:08.672Z,28.65
2022-08-07T11:12:31.985Z,28.60
2022-08-07T11:15:14.491Z,28.93
2022-08-07T11:17:47.904Z,29.31
2022-08-07T11:20:24.392Z,29.58
2022-08-07T11:23:01.472Z,28.66
2022-08-07T11:25:47.842Z,28.55
2022-08-07T11:28:24.664Z,28.99
2022-08-07T11:30:57.798Z,29.65
2022-08-07T11:33:53.526Z,28.55
2022-08-07T11:39:20.361Z,30.20
2022-08-07T11:42:02.018Z,30.25
2022-08-07T11:44:52.296Z,30.06
2022-08-07T11:47:55.853Z,29.44
2022-08-07T11:50:57.609Z,28.41
2022-08-07T11:56:27.220Z,30.03
2022-08-07T12:04:43.088Z,29.40
2022-08-07T12:07:27.048Z,29.41
2022-08-07T12:15:46.106Z,29.27
2022-08-07T12:24:07.053Z,31.54
2022-08-07T12:26:46.921Z,30.64
2022-08-07T12:29:37.326Z,29.83
2022-08-07T12:37:27.750Z,32.13
2022-08-07T12:39:59.284Z,32.22
2022-08-07T12:47:49.349Z,30.00
2022-08-07T12:50:34.053Z,30.89
2022-08-07T12:53:18.620Z,32.17
2022-08-07T13:04:05.246Z,32.24
2022-08-07T13:07:00.500Z,31.54
2022-08-07T13:15:31.650Z,32.04
2022-08-07T13:24:03.922Z,31.96
2022-08-07T13:42:21.539Z,34.10
2022-08-07T13:47:27.775Z,31.77
2022-08-07T13:55:37.103Z,32.96
2022-08-07T14:08:54.763Z,32.87
2022-08-07T14:24:29.167Z,32.32
2022-08-07T14:35:43.264Z,33.15
2022-08-07T15:00:03.683Z,34.43
2022-08-07T15:07:51.028Z,32.43
2022-08-07T15:25:14.831Z,32.88
2022-08-07T15:38:29.868Z,31.50
2022-08-07T15:46:38.406Z,33.45
2022-08-07T15:49:14.555Z,32.49
2022-08-07T16:08:29.097Z,32.82
2022-08-07T16:10:15.555Z,32.29
2022-08-07T16:32:46.356Z,31.95
2022-08-07T16:39:00.566Z,31.89
2022-08-07T16:53:48.318Z,32.39
2022-08-07T16:56:21.146Z,32.17
2022-08-07T17:13:24.228Z,31.48
2022-08-07T17:16:20.175Z,30.80
2022-08-07T17:19:18.132Z,30.85
2022-08-07T17:38:55.378Z,30.43
2022-08-07T17:42:04.580Z,29.28
2022-08-07T17:52:53.839Z,28.89
2022-08-07T17:55:59.998Z,28.29
2022-08-07T17:58:29.995Z,27.69
2022-08-07T18:01:20.787Z,27.37
2022-08-07T18:06:43.577Z,26.85
2022-08-07T18:12:20.239Z,26.43
2022-08-07T18:18:45.095Z,25.89
2022-08-07T18:21:04.569Z,25.75
2022-08-07T18:23:43.239Z,25.61
2022-08-07T18:26:19.517Z,25.50
2022-08-07T18:35:10.355Z,25.16
2022-08-07T18:38:59.590Z,25.06
2022-08-07T18:41:08.121Z,24.99
2022-08-07T18:43:51.330Z,24.81
2022-08-07T18:46:31.847Z,24.81
2022-08-07T18:50:18.974Z,24.67
2022-08-07T18:52:40.785Z,24.51
2022-08-07T18:55:41.794Z,24.39
2022-08-07T18:58:22.592Z,24.24
2022-08-07T19:03:44.718Z,24.01
2022-08-07T19:06:21.529Z,23.90
2022-08-07T19:09:55.389Z,23.87
2022-08-07T19:12:18.013Z,23.79
2022-08-07T19:15:02.455Z,23.65
2022-08-07T19:23:17.989Z,23.29
2022-08-07T19:26:23.164Z,23.15
2022-08-07T19:30:53.821Z,23.10
2022-08-07T19:31:57.728Z,22.97
2022-08-07T19:34:34.490Z,22.89
2022-08-07T19:37:17.289Z,22.86
2022-08-07T19:39:57.988Z,22.69
2022-08-07T19:42:39.932Z,22.57
2022-08-07T19:46:04.790Z,22.54
2022-08-07T19:48:05.106Z,22.49
2022-08-07T19:50:53.184Z,22.33
2022-08-07T19:54:33.903Z,22.25
2022-08-07T19:58:01.869Z,22.27
2022-08-07T19:59:03.348Z,22.22
2022-08-07T20:01:52.143Z,22.12
2022-08-07T20:04:31.962Z,22.31
2022-08-07T20:07:09.180Z,22.41
2022-08-07T20:10:33.363Z,22.46
2022-08-07T20:12:38.161Z,22.61
2022-08-07T20:15:18.923Z,22.63
2022-08-07T20:18:01.755Z,22.62
2022-08-07T20:20:34.877Z,22.54
2022-08-07T20:23:22.898Z,22.58
2022-08-07T20:25:56.821Z,22.62
2022-08-07T20:28:31.735Z,22.57
2022-08-07T20:31:01.628Z,22.17
2022-08-07T20:33:36.643Z,21.80
2022-08-07T20:36:10.285Z,21.64
2022-08-07T20:38:59.858Z,21.76
2022-08-07T20:41:34.178Z,21.69
2022-08-07T20:44:10.374Z,21.52
2022-08-07T20:46:45.019Z,21.27
2022-08-07T20:50:00.876Z,21.17
2022-08-07T20:54:53.020Z,21.17
2022-08-07T20:57:24.789Z,21.22
2022-08-07T21:00:06.191Z,21.17
2022-08-07T21:03:01.834Z,21.06
2022-08-07T21:05:51.516Z,21.07
2022-08-07T21:08:36.559Z,20.96
2022-08-07T21:13:58.009Z,20.78
2022-08-07T21:27:02.641Z,20.84
2022-08-07T21:32:47.200Z,20.71
2022-08-07T21:35:34.840Z,20.73
2022-08-07T21:40:51.049Z,20.51
2022-08-07T21:43:23.824Z,20.49
2022-08-07T21:49:00.593Z,20.51
2022-08-07T21:54:35.336Z,20.41
2022-08-07T22:00:06.124Z,20.26
2022-08-07T22:02:44.766Z,20.22
2022-08-07T22:05:22.099Z,20.22
2022-08-07T22:08:06.760Z,20.40
2022-08-07T22:10:42.427Z,20.40
2022-08-07T22:13:15.992Z,20.27
2022-08-07T22:16:39.391Z,20.22
2022-08-07T22:21:20.607Z,20.12
2022-08-07T22:23:55.878Z,20.10
2022-08-07T22:29:08.880Z,20.18
2022-08-07T22:32:00.022Z,20.06
2022-08-07T22:34:52.942Z,19.90
2022-08-07T22:40:28.131Z,19.79
2022-08-07T22:43:02.196Z,19.79
2022-08-07T22:46:40.681Z,19.63
2022-08-07T22:49:02.237Z,19.55
2022-08-07T22:51:57.387Z,19.47
2022-08-07T22:54:49.193Z,19.33
2022-08-07T22:57:42.026Z,19.20
2022-08-07T23:03:13.679Z,19.12
2022-08-07T23:06:16.706Z,19.27
2022-08-07T23:10:03.391Z,19.28
2022-08-07T23:12:32.663Z,19.30
2022-08-07T23:15:12.006Z,19.21
2022-08-07T23:21:04.341Z,19.20
2022-08-07T23:24:06.858Z,19.09
2022-08-07T23:26:57.179Z,19.11
2022-08-07T23:30:38.358Z,19.06
2022-08-07T23:34:20.300Z,18.92
2022-08-07T23:38:54.629Z,18.87
2022-08-07T23:41:47.566Z,18.97
2022-08-07T23:47:42.003Z,18.87
2022-08-07T23:50:37.665Z,18.94
2022-08-07T23:53:22.937Z,18.86
2022-08-07T23:56:21.166Z,18.82
2022-08-07T23:59:00.241Z,18.87
